Terminal Aerodrome Forecast
Issued by NWS Tulsa, OK

Home | Current Version | Previous Version | Text Only | Print | Product List | Glossary On
Versions: 1 2 3 4 5 6 7 8 9 10 11 12 13 14 15 16 17 18 19 20 21
897
FTUS44 KTSA 080802 AAA
TAFFSM
TAF AMD
KFSM 080802Z 0808/0906 36012KT P6SM BKN250
      TEMPO 0808/0810 BKN050
     FM081000 34009KT P6SM BKN250
     FM081500 33011G18KT P6SM BKN250
     FM090000 32006KT P6SM SKC=

USA.gov is the U.S. government's official web portal to all federal, state and local government web resources and services.